Monday, August 20, 2018, 1:15 AM EDT
Back to Local

KBLM, Belmar-farmingdale

Location: Farmingdale, NJ, United States Lat: 40.183
Local Time: 1:15 AM EDT ( 5:15 GMT) Lon: -74.133
Time Zone: US/Eastern Elev: 157 ft

Show me the last for .
Show Decoded

2018-08-20 00:56 METAR KBLM 200456Z AUTO 06005KT 10SM FEW023 OVC080 21/17 A3009 RMK AO2 SLP193
                 T02060167 402280200 =
2018-08-19 23:56 METAR KBLM 200356Z AUTO 07007KT 10SM SCT021 21/17 A3010 RMK AO2 SLP194 T02060172
                 =
2018-08-19 23:38 METAR KBLM 200338Z AUTO 06009KT 10SM SCT021 21/17 A3009 RMK AO2 =
2018-08-19 23:12 METAR KBLM 200312Z AUTO 07007KT 10SM BKN021 OVC070 21/17 A3009 RMK AO2 =
2018-08-19 22:56 METAR KBLM 200256Z AUTO 06010KT 10SM SCT019 SCT024 OVC070 21/17 A3008 RMK AO2
                 SLP190 T02060172 51010 =
2018-08-19 22:38 METAR KBLM 200238Z AUTO 06009KT 10SM SCT019 BKN024 OVC070 21/17 A3009 RMK AO2 =
2018-08-19 21:56 METAR KBLM 200156Z AUTO 07009KT 10SM BKN043 OVC065 21/17 A3008 RMK AO2 SLP190
                 T02060172 =
2018-08-19 20:56 METAR KBLM 200056Z AUTO 07007KT 10SM FEW016 OVC039 21/18 A3007 RMK AO2 SLP186
                 T02060178 =
2018-08-19 19:56 METAR KBLM 192356Z AUTO 07006KT 10SM OVC037 21/18 A3005 RMK AO2 SLP180 60004
                 T02060183 10206 20200 53012 =
2018-08-19 18:56 METAR KBLM 192256Z AUTO 05005KT 10SM OVC031 20/18 A3004 RMK AO2 RAB18E56 SLP174
                 P0000 T02000183 =
2018-08-19 17:56 METAR KBLM 192156Z AUTO 05007KT 10SM OVC025 20/19 A3003 RMK AO2 RAE13 SLP173
                 P0000 T02000189 =
2018-08-19 17:23 METAR KBLM 192123Z AUTO 06009KT 10SM SCT010 OVC022 20/19 A3002 RMK AO2 RAE13
                 P0000 =
2018-08-19 17:09 METAR KBLM 192109Z AUTO 07012KT 8SM -RA BKN010 OVC020 20/19 A3002 RMK AO2 P0000
                 =
2018-08-19 16:56 METAR KBLM 192056Z AUTO 05008KT 2 1/2SM -RA BR BKN012 OVC018 20/19 A3002 RMK AO2
                 RAB44 SLP168 P0000 60004 T02000189 53004 =
2018-08-19 16:37 METAR KBLM 192037Z AUTO 04010KT 8SM BKN010 BKN014 OVC020 20/19 A3001 RMK AO2 CIG
                 007V011 =
2018-08-19 15:56 METAR KBLM 191956Z AUTO 05009G14KT 3SM BR OVC008 20/19 A3001 RMK AO2 RAE55 CIG
                 004V009 SLP165 P0002 T02000194 =
2018-08-19 15:43 METAR KBLM 191943Z AUTO 05008KT 3SM -RA BR OVC008 20/19 A3001 RMK AO2 CIG
                 005V010 P0002 =
2018-08-19 15:28 METAR KBLM 191928Z AUTO 04007KT 2 1/2SM -RA BR BKN008 OVC014 20/19 A3001 RMK AO2
                 CIG 006V010 P0002 =
2018-08-19 15:23 METAR KBLM 191923Z AUTO 04007KT 2 1/2SM -RA BR BKN011 OVC016 20/19 A3001 RMK AO2
                 CIG 007V014 P0002 =
2018-08-19 15:07 METAR KBLM 191907Z AUTO 06007KT 2 1/2SM -RA BR BKN015 OVC020 21/19 A3000 RMK AO2
                 P0000 =
2018-08-19 14:56 METAR KBLM 191856Z AUTO 05008KT 5SM -RA BR BKN012 OVC018 21/19 A3000 RMK AO2
                 RAB1757 SLP163 P0002 T02060194 =
2018-08-19 14:44 METAR KBLM 191844Z AUTO 05007KT 3SM RA BR OVC012 21/19 A3000 RMK AO2 RAB1757
                 P0001 =
2018-08-19 14:25 METAR KBLM 191825Z AUTO 05009KT 2 1/2SM -RA BR OVC010 21/19 A3001 RMK AO2 VIS
                 2V4 RAB1757 CIG 005V014 P0000 =
2018-08-19 13:56 METAR KBLM 191756Z AUTO 04008KT 3SM BR OVC006 20/19 A3001 RMK AO2 RAE36 CIG
                 004V008 SLP164 P0000 60001 T02000189 10206 20200 53008 =
2018-08-19 13:41 METAR KBLM 191741Z AUTO 07011G15KT 8SM OVC004 21/19 A2999 RMK AO2 RAE36 CIG
                 004V007 P0000 =
2018-08-19 12:56 METAR KBLM 191656Z AUTO 04009KT 4SM -RA BR OVC006 21/19 A2999 RMK AO2 SLP158
                 P0001 T02060194 =
2018-08-19 11:56 METAR KBLM 191556Z AUTO 04009KT 7SM -RA OVC006 20/19 A2999 RMK AO2 CIG 005V010
                 SLP158 P0000 T02000189 =
2018-08-19 10:56 METAR KBLM 191456Z AUTO 04009G16KT 6SM -RA BR OVC008 21/19 A2998 RMK AO2
                 RAE03B39 SLP156 P0000 60000 T02060194 53018 =
2018-08-19 09:56 METAR KBLM 191356Z AUTO 03010KT 8SM -RA BKN008 OVC019 20/19 A2997 RMK AO2 RAB49
                 CIG 006V010 SLP150 P0000 T02000194 =
2018-08-19 08:56 METAR KBLM 191256Z AUTO 04013G18KT 10SM OVC006 21/19 A2994 RMK AO2 RAE10 SLP141
                 P0000 T02060194 =
2018-08-19 07:56 METAR KBLM 191156Z AUTO 04011G16KT 7SM -RA OVC006 20/19 A2993 RMK AO2 CIG
                 004V009 SLP138 P0005 60014 70014 T02000194 10222 20200 53021 =
2018-08-19 06:56 METAR KBLM 191056Z AUTO 01008KT 3SM RA BR OVC006 21/20 A2991 RMK AO2 CIG 003V009
                 SLP131 P0008 T02060200 =
2018-08-19 06:32 METAR KBLM 191032Z AUTO 35007KT 3SM RA BR BKN008 OVC013 21/20 A2990 RMK AO2 CIG
                 007V011 P0003 =
2018-08-19 05:56 METAR KBLM 190956Z AUTO 36007KT 10SM -RA OVC013 21/20 A2988 RMK AO2 RAB49 SLP122
                 P0000 T02060200 =
2018-08-19 05:44 METAR KBLM 190944Z AUTO 01008KT 10SM OVC013 21/20 A2988 RMK AO2 =
2018-08-19 04:56 METAR KBLM 190856Z AUTO 02006KT 10SM OVC015 22/19 A2987 RMK AO2 RAB20E51 SLP116
                 P0001 60001 T02170194 50003 =
2018-08-19 03:56 METAR KBLM 190756Z AUTO 02009KT 10SM OVC015 22/19 A2987 RMK AO2 SLP116 T02220194
                 =
2018-08-19 02:56 METAR KBLM 190656Z AUTO 02007KT 10SM OVC022 22/19 A2987 RMK AO2 SLP115 T02220194
                 =
2018-08-19 01:56 METAR KBLM 190556Z AUTO 36006KT 10SM OVC021 22/19 A2986 RMK AO2 SLP113 T02220194
                 10261 20222 53000 =

Support USWX by starting your Amazon purchase here.